Time;durP1;ratioP1;P1;durP2;ratioP2;P2;SDS_P1;SDS_P2;PMS_P1;PMS_P2;Temp;Humidity;BMP_temperature;BMP_pressure;BME280_temperature;BME280_humidity;BME280_pressure;Samples;Min_cycle;Max_cycle;Signal;HPM_P1;HPM_P2
2022/05/02 00:00:25;;;;;;;;;;;27.10;92.80;;;;;;5111752;28;20112;-42
2022/05/02 00:02:52;;;;;;;;;;;27.10;93.00;;;;;;5109887;28;19975;-41
2022/05/02 00:05:18;;;;;;;;;;;27.10;92.90;;;;;;5113159;28;19975;-50
2022/05/02 00:07:44;;;;;;;;;;;27.10;92.90;;;;;;5121702;28;19962;-45
2022/05/02 00:10:11;;;;;;;;;;;27.10;92.80;;;;;;5108455;28;19936;-43
2022/05/02 00:12:37;;;;;;;;;;;27.10;92.90;;;;;;5090407;28;19916;-43
2022/05/02 00:15:03;;;;;;;;;;;27.10;93.00;;;;;;5104039;28;19904;-50
2022/05/02 00:20:13;;;;;;;;;;;27.10;93.00;;;;;;5110646;28;19922;-49
2022/05/02 00:22:40;;;;;;;;;;;27.10;93.10;;;;;;5120643;28;19979;-47
2022/05/02 00:25:06;;;;;;;;;;;27.10;93.10;;;;;;5126144;28;19904;-47
2022/05/02 00:27:32;;;;;;;;;;;27.10;93.00;;;;;;5126011;28;20103;-47
2022/05/02 00:29:59;;;;;;;;;;;27.10;92.90;;;;;;5109536;28;19932;-47
2022/05/02 00:32:26;;;;;;;;;;;27.00;93.10;;;;;;5092657;28;19920;-50
2022/05/02 00:34:52;;;;;;;;;;;27.00;92.90;;;;;;5085269;28;19904;-47
2022/05/02 00:37:19;;;;;;;;;;;27.10;92.80;;;;;;5085446;28;19921;-49
2022/05/02 00:39:45;;;;;;;;;;;27.10;92.60;;;;;;5085340;28;19904;-43
2022/05/02 00:42:11;;;;;;;;;;;27.10;92.60;;;;;;5084788;28;20046;-48
2022/05/02 00:44:40;;;;;;;;;;;27.10;92.50;;;;;;5085177;28;20437;-49
2022/05/02 00:47:06;;;;;;;;;;;27.10;92.60;;;;;;5085293;28;19919;-46
2022/05/02 00:49:33;;;;;;;;;;;27.10;92.70;;;;;;5085099;28;19904;-42
2022/05/02 00:51:59;;;;;;;;;;;27.00;92.70;;;;;;5110098;28;19957;-45
2022/05/02 00:54:25;;;;;;;;;;;27.00;92.80;;;;;;5106138;28;20096;-44
2022/05/02 00:56:52;;;;;;;;;;;27.10;92.70;;;;;;5088512;28;19913;-50
2022/05/02 00:59:20;;;;;;;;;;;27.10;92.50;;;;;;5084812;28;20123;-45
2022/05/02 01:01:46;;;;;;;;;;;27.10;92.40;;;;;;5067248;28;19948;-51
2022/05/02 01:04:12;;;;;;;;;;;27.20;92.50;;;;;;5099018;28;19911;-46
2022/05/02 01:09:23;;;;;;;;;;;27.20;92.30;;;;;;5084849;28;19943;-44
2022/05/02 01:11:49;;;;;;;;;;;27.20;92.30;;;;;;5084379;28;19942;-42
2022/05/02 01:14:15;;;;;;;;;;;27.20;92.30;;;;;;5084763;28;19971;-42
2022/05/02 01:16:41;;;;;;;;;;;27.20;92.40;;;;;;5084784;28;20092;-41
2022/05/02 01:19:07;;;;;;;;;;;27.20;92.20;;;;;;5112463;28;19907;-42
2022/05/02 01:21:34;;;;;;;;;;;27.20;91.80;;;;;;5105597;28;19919;-41
2022/05/02 01:24:01;;;;;;;;;;;27.30;91.80;;;;;;5104799;28;19926;-41
2022/05/02 01:26:28;;;;;;;;;;;27.20;91.90;;;;;;5086320;28;19950;-42
2022/05/02 01:28:58;;;;;;;;;;;27.20;91.30;;;;;;5104697;28;19971;-44
2022/05/02 01:31:25;;;;;;;;;;;27.20;91.10;;;;;;5105057;28;20189;-42
2022/05/02 01:33:51;;;;;;;;;;;27.20;91.00;;;;;;5104445;28;19981;-41
2022/05/02 01:36:18;;;;;;;;;;;27.20;90.80;;;;;;5104921;28;19912;-41
2022/05/02 01:38:44;;;;;;;;;;;27.20;90.80;;;;;;5104675;28;19912;-43
2022/05/02 01:41:11;;;;;;;;;;;27.20;90.70;;;;;;5104205;28;20096;-41
2022/05/02 01:43:37;;;;;;;;;;;27.20;90.70;;;;;;5086580;28;20119;-41
2022/05/02 01:46:04;;;;;;;;;;;27.30;90.70;;;;;;5100276;28;19939;-45
2022/05/02 01:48:30;;;;;;;;;;;27.30;90.60;;;;;;5093083;28;19909;-40
2022/05/02 01:50:58;;;;;;;;;;;27.20;90.70;;;;;;5111569;28;19910;-42
2022/05/02 01:53:24;;;;;;;;;;;27.20;90.70;;;;;;5118287;28;19916;-41
2022/05/02 01:55:51;;;;;;;;;;;27.20;90.70;;;;;;5104021;28;19935;-44
2022/05/02 01:58:17;;;;;;;;;;;27.20;90.80;;;;;;5104300;28;19911;-42
2022/05/02 02:00:43;;;;;;;;;;;27.20;90.80;;;;;;5104326;28;20099;-41
2022/05/02 02:03:10;;;;;;;;;;;27.20;90.90;;;;;;5100398;28;19912;-41
2022/05/02 02:05:51;;;;;;;;;;;27.20;90.90;;;;;;5077396;28;20245;-42
2022/05/02 02:08:19;;;;;;;;;;;27.20;90.80;;;;;;5105070;28;19912;-42
2022/05/02 02:10:46;;;;;;;;;;;27.20;90.90;;;;;;5108328;28;19908;-42
2022/05/02 02:13:13;;;;;;;;;;;27.10;91.00;;;;;;5108723;28;19923;-46
2022/05/02 02:15:39;;;;;;;;;;;27.10;91.10;;;;;;5108387;28;19972;-45
2022/05/02 02:18:05;;;;;;;;;;;27.10;91.00;;;;;;5108622;28;19939;-41
2022/05/02 02:20:32;;;;;;;;;;;27.10;91.20;;;;;;5108262;28;19967;-51
2022/05/02 02:22:59;;;;;;;;;;;27.10;91.10;;;;;;5108752;28;19983;-40
2022/05/02 02:25:25;;;;;;;;;;;27.00;91.10;;;;;;5107809;28;20534;-42
2022/05/02 02:27:52;;;;;;;;;;;27.00;91.10;;;;;;5108625;28;19994;-41
2022/05/02 02:30:19;;;;;;;;;;;27.00;91.10;;;;;;5108142;28;19935;-45
2022/05/02 02:32:45;;;;;;;;;;;27.00;91.40;;;;;;5104552;28;19939;-41
2022/05/02 02:35:12;;;;;;;;;;;27.00;91.70;;;;;;5096925;28;20124;-41
2022/05/02 02:37:39;;;;;;;;;;;27.00;91.50;;;;;;5116751;28;19949;-41
2022/05/02 02:40:09;;;;;;;;;;;27.00;91.30;;;;;;5111111;28;19907;-42
2022/05/02 02:42:36;;;;;;;;;;;27.00;91.30;;;;;;5110052;28;19935;-41
2022/05/02 02:45:03;;;;;;;;;;;26.90;91.20;;;;;;5109284;28;19908;-44
2022/05/02 02:47:29;;;;;;;;;;;26.90;91.10;;;;;;5105182;28;19944;-40
2022/05/02 02:49:55;;;;;;;;;;;26.90;91.20;;;;;;5100485;28;19904;-40
2022/05/02 02:52:21;;;;;;;;;;;26.90;91.20;;;;;;5127907;28;20107;-41
2022/05/02 02:54:47;;;;;;;;;;;26.90;91.20;;;;;;5121367;28;19908;-52
2022/05/02 02:57:14;;;;;;;;;;;26.90;91.10;;;;;;5103640;28;19942;-41
2022/05/02 02:59:40;;;;;;;;;;;26.90;91.20;;;;;;5112722;28;19967;-43
2022/05/02 03:02:06;;;;;;;;;;;26.90;91.20;;;;;;5120333;28;19924;-41
2022/05/02 03:07:18;;;;;;;;;;;26.80;91.10;;;;;;5108213;28;19919;-43
2022/05/02 03:09:44;;;;;;;;;;;26.80;91.20;;;;;;5127410;28;19904;-43
2022/05/02 03:12:10;;;;;;;;;;;26.80;91.20;;;;;;5127573;28;19916;-44
2022/05/02 03:14:36;;;;;;;;;;;26.80;91.20;;;;;;5111921;28;19916;-43
2022/05/02 03:17:02;;;;;;;;;;;26.80;91.30;;;;;;5106552;28;20081;-50
2022/05/02 03:19:29;;;;;;;;;;;26.80;91.30;;;;;;5099000;28;19915;-41
2022/05/02 03:21:55;;;;;;;;;;;26.80;91.30;;;;;;5102948;28;19912;-47
2022/05/02 03:24:21;;;;;;;;;;;26.80;91.20;;;;;;5099617;28;19916;-45
2022/05/02 03:26:47;;;;;;;;;;;26.80;91.10;;;;;;5119101;28;19911;-42
2022/05/02 03:29:13;;;;;;;;;;;26.80;91.10;;;;;;5111833;28;19976;-41
2022/05/02 03:31:40;;;;;;;;;;;26.80;91.00;;;;;;5120667;28;19912;-40
2022/05/02 03:34:06;;;;;;;;;;;26.80;91.00;;;;;;5127406;28;19949;-44
2022/05/02 03:36:32;;;;;;;;;;;26.80;91.10;;;;;;5119725;28;20022;-43
2022/05/02 03:38:58;;;;;;;;;;;26.80;91.10;;;;;;5117112;28;19915;-41
2022/05/02 03:41:24;;;;;;;;;;;26.80;91.00;;;;;;5109351;28;19957;-40
2022/05/02 03:43:50;;;;;;;;;;;26.80;91.00;;;;;;5124268;28;19908;-40
2022/05/02 03:46:17;;;;;;;;;;;26.80;91.00;;;;;;5127336;28;19954;-41
2022/05/02 03:48:44;;;;;;;;;;;26.80;90.90;;;;;;5126887;28;19949;-40
2022/05/02 03:51:13;;;;;;;;;;;26.80;90.90;;;;;;5122382;28;19903;-43
2022/05/02 03:53:39;;;;;;;;;;;26.80;90.80;;;;;;5096406;28;19916;-43
2022/05/02 03:56:05;;;;;;;;;;;26.80;90.70;;;;;;5086052;28;19910;-46
2022/05/02 03:58:31;;;;;;;;;;;26.80;90.80;;;;;;5086285;28;19904;-41
2022/05/02 04:00:58;;;;;;;;;;;26.80;90.80;;;;;;5086223;28;19911;-41
2022/05/02 04:03:24;;;;;;;;;;;26.80;90.70;;;;;;5106483;28;19904;-43
2022/05/02 04:05:50;;;;;;;;;;;26.80;90.60;;;;;;5126845;28;19911;-41
2022/05/02 04:08:16;;;;;;;;;;;26.80;90.60;;;;;;5126685;28;19912;-40
2022/05/02 04:10:42;;;;;;;;;;;26.80;90.60;;;;;;5119476;28;19915;-42
2022/05/02 04:13:09;;;;;;;;;;;26.80;90.80;;;;;;5095443;28;19916;-43
2022/05/02 04:15:35;;;;;;;;;;;26.80;90.50;;;;;;5086059;28;20078;-41
2022/05/02 04:18:02;;;;;;;;;;;26.90;90.50;;;;;;5086039;28;19913;-43
2022/05/02 04:20:28;;;;;;;;;;;26.80;90.40;;;;;;5085748;28;19940;-41
2022/05/02 04:22:54;;;;;;;;;;;26.90;90.40;;;;;;5086165;28;19920;-42
2022/05/02 04:25:20;;;;;;;;;;;26.90;90.40;;;;;;5085624;28;20188;-42
2022/05/02 04:27:46;;;;;;;;;;;26.90;90.40;;;;;;5086073;28;19913;-45
2022/05/02 04:30:12;;;;;;;;;;;26.90;90.40;;;;;;5094849;28;20078;-42
2022/05/02 04:32:39;;;;;;;;;;;26.90;90.40;;;;;;5104963;28;19922;-44
2022/05/02 04:35:05;;;;;;;;;;;26.80;90.50;;;;;;5105545;28;19904;-44
2022/05/02 04:37:32;;;;;;;;;;;26.90;90.50;;;;;;5106042;28;19912;-44
2022/05/02 04:39:58;;;;;;;;;;;26.90;90.50;;;;;;5105733;28;19904;-44
2022/05/02 04:42:24;;;;;;;;;;;26.80;90.60;;;;;;5105902;28;20203;-40
2022/05/02 04:44:50;;;;;;;;;;;26.80;90.80;;;;;;5105621;28;19904;-41
2022/05/02 04:47:16;;;;;;;;;;;26.80;90.90;;;;;;5105890;28;19913;-41
2022/05/02 04:49:42;;;;;;;;;;;26.90;90.90;;;;;;5105431;28;19975;-44
2022/05/02 04:52:09;;;;;;;;;;;26.90;91.00;;;;;;5105321;28;19920;-47
2022/05/02 04:54:35;;;;;;;;;;;26.90;91.00;;;;;;5105443;28;20196;-43
2022/05/02 04:57:01;;;;;;;;;;;26.80;91.10;;;;;;5105462;28;19916;-42
2022/05/02 04:59:27;;;;;;;;;;;26.90;91.10;;;;;;5105412;28;19950;-42
2022/05/02 05:01:53;;;;;;;;;;;26.90;91.10;;;;;;5105423;28;19997;-42
2022/05/02 05:04:19;;;;;;;;;;;26.90;91.00;;;;;;5105159;28;20214;-41
2022/05/02 05:06:45;;;;;;;;;;;26.80;91.10;;;;;;5105425;28;19908;-41
2022/05/02 05:09:11;;;;;;;;;;;26.80;91.10;;;;;;5108339;28;19908;-41
2022/05/02 05:11:38;;;;;;;;;;;26.80;91.20;;;;;;5112807;28;19912;-44
2022/05/02 05:17:41;;;;;;;;;;;26.80;91.40;;;;;;5105028;28;19926;-42
2022/05/02 05:20:17;;;;;;;;;;;26.80;91.40;;;;;;5120826;28;19911;-40
2022/05/02 05:22:43;;;;;;;;;;;26.80;91.30;;;;;;5114201;28;19919;-44
2022/05/02 05:25:12;;;;;;;;;;;26.80;91.20;;;;;;5104832;28;19911;-42
2022/05/02 05:27:51;;;;;;;;;;;26.80;91.30;;;;;;5105131;28;19912;-41
2022/05/02 05:30:23;;;;;;;;;;;26.70;91.30;;;;;;5104954;28;19911;-43
2022/05/02 05:33:22;;;;;;;;;;;26.80;91.70;;;;;;5105018;28;19916;-41
2022/05/02 05:35:56;;;;;;;;;;;26.70;91.30;;;;;;5049453;28;20134;-46
2022/05/02 05:38:28;;;;;;;;;;;26.70;91.40;;;;;;5104856;28;20219;-41
2022/05/02 05:41:02;;;;;;;;;;;26.70;91.50;;;;;;5104663;28;19904;-41
2022/05/02 05:43:34;;;;;;;;;;;26.70;91.60;;;;;;5104141;28;19905;-45
2022/05/02 05:46:09;;;;;;;;;;;26.70;91.60;;;;;;5104635;28;20189;-40
2022/05/02 05:48:53;;;;;;;;;;;26.70;91.60;;;;;;5104581;28;19904;-40
2022/05/02 05:51:20;;;;;;;;;;;26.70;91.60;;;;;;5104467;28;19989;-43
2022/05/02 05:53:49;;;;;;;;;;;26.60;91.60;;;;;;5103437;28;20410;-48
2022/05/02 05:56:23;;;;;;;;;;;26.70;91.70;;;;;;5112128;28;20080;-43
2022/05/02 05:59:21;;;;;;;;;;;26.70;91.70;;;;;;5124798;28;20203;-42
2022/05/02 06:02:04;;;;;;;;;;;26.70;91.60;;;;;;5079964;28;19908;-39
2022/05/02 06:04:33;;;;;;;;;;;26.70;91.70;;;;;;5124673;28;19915;-42
2022/05/02 06:07:00;;;;;;;;;;;26.70;91.80;;;;;;5124928;28;19915;-42
2022/05/02 06:09:30;;;;;;;;;;;26.70;91.80;;;;;;5124790;28;19931;-55
2022/05/02 06:11:59;;;;;;;;;;;26.70;91.90;;;;;;5124766;28;19956;-55
2022/05/02 06:18:27;;;;;;;;;;;26.70;92.00;;;;;;5124714;28;19908;-42
2022/05/02 06:20:10;;;;;;;;;;;26.70;92.10;;;;;;5124615;28;20306;-41
2022/05/02 06:22:38;;;;;;;;;;;26.70;92.10;;;;;;5125011;28;19930;-48
2022/05/02 06:25:04;;;;;;;;;;;26.60;92.10;;;;;;5124626;28;19908;-42
2022/05/02 06:27:32;;;;;;;;;;;26.70;92.20;;;;;;5124711;28;19908;-40
2022/05/02 06:29:59;;;;;;;;;;;26.60;92.20;;;;;;5124542;28;20181;-42
2022/05/02 06:32:26;;;;;;;;;;;26.60;92.20;;;;;;5124799;28;20180;-42
2022/05/02 06:34:52;;;;;;;;;;;26.60;92.20;;;;;;5124381;28;19915;-42
2022/05/02 06:37:37;;;;;;;;;;;26.60;92.30;;;;;;5124428;28;20153;-41
2022/05/02 06:40:21;;;;;;;;;;;26.60;92.30;;;;;;5124391;28;20021;-42
2022/05/02 06:43:03;;;;;;;;;;;26.60;92.30;;;;;;5124962;28;20183;-41
2022/05/02 06:45:49;;;;;;;;;;;26.60;92.30;;;;;;5124360;28;19956;-42
2022/05/02 06:48:27;;;;;;;;;;;26.60;92.30;;;;;;5106877;28;19983;-41
2022/05/02 06:50:57;;;;;;;;;;;26.60;92.30;;;;;;5124232;28;19910;-41
2022/05/02 06:53:41;;;;;;;;;;;26.60;92.30;;;;;;5124239;28;19968;-40
2022/05/02 06:56:16;;;;;;;;;;;26.60;92.20;;;;;;5126260;28;20196;-43
2022/05/02 06:59:01;;;;;;;;;;;26.60;92.20;;;;;;5128328;28;20096;-48
2022/05/02 07:01:39;;;;;;;;;;;26.60;92.20;;;;;;5128198;28;19947;-58
2022/05/02 07:04:11;;;;;;;;;;;26.60;92.30;;;;;;5128027;28;20196;-41
2022/05/02 07:06:46;;;;;;;;;;;26.60;92.30;;;;;;5128195;28;19903;-40
2022/05/02 07:09:24;;;;;;;;;;;26.60;92.30;;;;;;5127910;28;19912;-41
2022/05/02 07:11:56;;;;;;;;;;;26.60;92.30;;;;;;5128010;28;19943;-45
2022/05/02 07:14:22;;;;;;;;;;;26.60;92.00;;;;;;5127946;28;20118;-41
2022/05/02 07:16:52;;;;;;;;;;;26.60;92.00;;;;;;5127956;28;19908;-42
2022/05/02 07:19:50;;;;;;;;;;;26.60;91.90;;;;;;5127636;28;19912;-46
2022/05/02 07:22:24;;;;;;;;;;;26.60;91.80;;;;;;5071781;28;19907;-43
2022/05/02 07:24:50;;;;;;;;;;;26.60;91.60;;;;;;5127645;28;19907;-40
2022/05/02 07:27:23;;;;;;;;;;;26.60;91.60;;;;;;5127870;28;19904;-42
2022/05/02 07:29:56;;;;;;;;;;;26.60;91.70;;;;;;5127405;28;19946;-41
2022/05/02 07:32:24;;;;;;;;;;;26.60;91.60;;;;;;5127830;28;19907;-42
2022/05/02 07:34:51;;;;;;;;;;;26.60;91.60;;;;;;5127278;28;20111;-43
2022/05/02 07:37:20;;;;;;;;;;;26.60;91.50;;;;;;5128061;28;19911;-40
2022/05/02 07:39:48;;;;;;;;;;;26.60;91.50;;;;;;5127292;28;19912;-42
2022/05/02 07:42:14;;;;;;;;;;;26.60;91.50;;;;;;5127496;28;19904;-41
2022/05/02 07:44:43;;;;;;;;;;;26.60;91.60;;;;;;5127332;28;19990;-42
2022/05/02 07:47:11;;;;;;;;;;;26.60;91.60;;;;;;5127461;28;20087;-41
2022/05/02 07:49:39;;;;;;;;;;;26.60;91.50;;;;;;5127222;28;20207;-43
2022/05/02 07:52:05;;;;;;;;;;;26.60;91.50;;;;;;5127074;28;19912;-43
2022/05/02 07:54:37;;;;;;;;;;;26.60;91.50;;;;;;5127135;28;19908;-44
2022/05/02 07:57:04;;;;;;;;;;;26.60;91.50;;;;;;5127115;28;19915;-42
2022/05/02 07:59:38;;;;;;;;;;;26.60;91.50;;;;;;5126868;28;19908;-41
2022/05/02 08:02:05;;;;;;;;;;;26.60;91.50;;;;;;5127061;28;20172;-48
2022/05/02 08:04:32;;;;;;;;;;;26.50;91.50;;;;;;5126768;28;19908;-48
2022/05/02 08:07:11;;;;;;;;;;;26.60;91.50;;;;;;5126850;28;19907;-49
2022/05/02 08:09:57;;;;;;;;;;;26.60;91.50;;;;;;5126569;28;19908;-42
2022/05/02 08:12:37;;;;;;;;;;;26.60;91.50;;;;;;5127004;28;19912;-44
2022/05/02 08:15:03;;;;;;;;;;;26.60;91.60;;;;;;5126609;28;20222;-41
2022/05/02 08:17:38;;;;;;;;;;;26.50;91.60;;;;;;5126939;28;20073;-42
2022/05/02 08:20:23;;;;;;;;;;;26.50;91.50;;;;;;5126501;28;19914;-41
2022/05/02 08:29:00;;;;;;;;;;;26.50;91.60;;;;;;5126484;28;19914;-40
2022/05/02 08:31:35;;;;;;;;;;;26.50;91.70;;;;;;5126503;28;19908;-45
2022/05/02 08:34:08;;;;;;;;;;;26.50;91.70;;;;;;5126228;28;19920;-40
2022/05/02 08:36:41;;;;;;;;;;;26.50;91.70;;;;;;5126464;28;19908;-40
2022/05/02 08:39:09;;;;;;;;;;;26.50;91.70;;;;;;5126129;28;19914;-44
2022/05/02 08:41:51;;;;;;;;;;;26.50;91.70;;;;;;5126227;28;19908;-41
2022/05/02 08:44:27;;;;;;;;;;;26.50;91.80;;;;;;5125954;28;19908;-42
2022/05/02 08:47:12;;;;;;;;;;;26.50;91.80;;;;;;5126292;28;19979;-41
2022/05/02 08:49:44;;;;;;;;;;;26.50;91.80;;;;;;5125873;28;19908;-40
2022/05/02 08:52:22;;;;;;;;;;;26.50;91.80;;;;;;5125764;28;19957;-42
2022/05/02 08:54:52;;;;;;;;;;;26.50;91.80;;;;;;5125763;28;19952;-42
2022/05/02 08:57:26;;;;;;;;;;;26.50;91.90;;;;;;5126250;28;19939;-52
2022/05/02 09:00:05;;;;;;;;;;;26.50;91.90;;;;;;5125763;28;19928;-53
2022/05/02 09:02:50;;;;;;;;;;;26.50;92.00;;;;;;5125995;28;19908;-43
2022/05/02 09:05:21;;;;;;;;;;;26.40;92.00;;;;;;5125740;28;20103;-41
2022/05/02 09:08:06;;;;;;;;;;;26.40;92.20;;;;;;5125535;28;19908;-42
2022/05/02 09:10:38;;;;;;;;;;;26.40;92.00;;;;;;5125587;28;19912;-41
2022/05/02 09:13:07;;;;;;;;;;;26.40;92.00;;;;;;5125937;28;19915;-41
2022/05/02 09:15:48;;;;;;;;;;;26.40;92.00;;;;;;5125497;28;19914;-41
2022/05/02 09:18:33;;;;;;;;;;;26.40;92.10;;;;;;5124788;28;19907;-45
2022/05/02 09:20:59;;;;;;;;;;;26.40;92.20;;;;;;5125300;28;20192;-43
2022/05/02 09:23:34;;;;;;;;;;;26.30;92.20;;;;;;5125218;28;19908;-40
2022/05/02 09:26:06;;;;;;;;;;;26.40;92.30;;;;;;5125265;28;19904;-43
2022/05/02 09:28:38;;;;;;;;;;;26.40;92.30;;;;;;5125439;28;19908;-46
2022/05/02 09:31:18;;;;;;;;;;;26.40;92.30;;;;;;5125282;28;19904;-41
2022/05/02 09:34:10;;;;;;;;;;;26.40;92.20;;;;;;5124975;28;19918;-45
2022/05/02 09:36:42;;;;;;;;;;;26.40;92.20;;;;;;5120573;28;19999;-41
2022/05/02 09:39:13;;;;;;;;;;;26.40;92.20;;;;;;5124872;28;19950;-40
2022/05/02 09:41:57;;;;;;;;;;;26.40;92.30;;;;;;5125138;28;19908;-40
2022/05/02 09:50:09;;;;;;;;;;;26.40;92.20;;;;;;5125065;28;19914;-48
2022/05/02 09:52:52;;;;;;;;;;;26.40;92.10;;;;;;5125067;28;19916;-48
2022/05/02 09:58:18;;;;;;;;;;;26.40;92.20;;;;;;5125262;28;19983;-42
2022/05/02 10:01:13;;;;;;;;;;;26.40;92.30;;;;;;5124776;28;19915;-42
2022/05/02 10:04:08;;;;;;;;;;;26.40;92.30;;;;;;5124718;28;19911;-39
2022/05/02 10:07:03;;;;;;;;;;;26.40;92.40;;;;;;5124662;28;19911;-41
2022/05/02 10:09:53;;;;;;;;;;;26.40;92.40;;;;;;5034867;28;19909;-44
2022/05/02 10:12:22;;;;;;;;;;;26.30;92.40;;;;;;5124833;28;19911;-40
2022/05/02 10:14:57;;;;;;;;;;;26.30;92.40;;;;;;5124578;28;19930;-49
2022/05/02 10:17:33;;;;;;;;;;;26.30;92.50;;;;;;5125019;28;19974;-43
2022/05/02 10:20:05;;;;;;;;;;;26.30;92.50;;;;;;5124608;28;19908;-48
2022/05/02 10:22:37;;;;;;;;;;;26.30;92.60;;;;;;5124952;28;19971;-41
2022/05/02 10:25:11;;;;;;;;;;;26.30;92.50;;;;;;5124687;28;19908;-40
2022/05/02 10:27:55;;;;;;;;;;;26.30;92.50;;;;;;5124753;28;19908;-47
2022/05/02 10:30:22;;;;;;;;;;;26.30;92.40;;;;;;5127243;28;19935;-43
2022/05/02 10:32:51;;;;;;;;;;;26.30;92.40;;;;;;5128838;28;20191;-40
2022/05/02 10:35:17;;;;;;;;;;;26.30;92.30;;;;;;5128568;28;20103;-45
2022/05/02 10:38:10;;;;;;;;;;;26.30;92.20;;;;;;5128899;28;19915;-40
2022/05/02 10:40:39;;;;;;;;;;;26.30;92.20;;;;;;5123685;28;19915;-38
2022/05/02 10:43:07;;;;;;;;;;;26.30;92.20;;;;;;5128904;28;19949;-43
2022/05/02 10:45:36;;;;;;;;;;;26.30;92.10;;;;;;5126456;28;20200;-40
2022/05/02 10:48:15;;;;;;;;;;;26.30;92.10;;;;;;5128787;28;19908;-43
2022/05/02 10:50:45;;;;;;;;;;;26.30;92.00;;;;;;5128130;28;19912;-43
2022/05/02 10:53:21;;;;;;;;;;;26.30;92.00;;;;;;5127796;28;19915;-40
2022/05/02 10:55:57;;;;;;;;;;;26.30;92.00;;;;;;5128145;28;19919;-41
2022/05/02 10:58:24;;;;;;;;;;;26.30;92.00;;;;;;5128012;28;19912;-47
2022/05/02 11:01:08;;;;;;;;;;;26.30;91.90;;;;;;5128377;28;20213;-41
2022/05/02 11:03:46;;;;;;;;;;;26.30;91.80;;;;;;5128267;28;19919;-40
2022/05/02 11:06:35;;;;;;;;;;;26.30;91.70;;;;;;5128170;28;20005;-42
2022/05/02 11:09:03;;;;;;;;;;;26.30;91.70;;;;;;5127872;28;20104;-42
2022/05/02 11:11:29;;;;;;;;;;;26.40;91.80;;;;;;5127980;28;20131;-46
2022/05/02 11:14:06;;;;;;;;;;;26.40;91.80;;;;;;5127675;28;19915;-42
2022/05/02 11:16:47;;;;;;;;;;;26.40;91.70;;;;;;5127895;28;19952;-42
2022/05/02 11:22:16;;;;;;;;;;;26.40;91.70;;;;;;5111915;28;20211;-43
2022/05/02 11:24:53;;;;;;;;;;;26.40;91.70;;;;;;5109976;28;19912;-41
2022/05/02 11:27:37;;;;;;;;;;;26.40;91.60;;;;;;5087453;28;19915;-43
2022/05/02 11:30:06;;;;;;;;;;;26.40;91.70;;;;;;5086797;28;19950;-44
2022/05/02 11:32:49;;;;;;;;;;;26.40;91.70;;;;;;5086020;28;20269;-40
2022/05/02 11:35:22;;;;;;;;;;;26.40;91.60;;;;;;5085029;28;20235;-40
2022/05/02 11:38:10;;;;;;;;;;;26.40;91.70;;;;;;5084912;28;19908;-42
2022/05/02 11:40:46;;;;;;;;;;;26.40;91.60;;;;;;5086911;28;19972;-43
2022/05/02 11:43:15;;;;;;;;;;;26.50;91.60;;;;;;5125240;28;20108;-45
2022/05/02 11:45:45;;;;;;;;;;;26.50;91.60;;;;;;5125523;28;19908;-41
2022/05/02 11:48:30;;;;;;;;;;;26.50;91.60;;;;;;5127166;28;19911;-43
2022/05/02 11:50:59;;;;;;;;;;;26.50;91.60;;;;;;5119407;28;19912;-45
2022/05/02 11:53:27;;;;;;;;;;;26.50;91.50;;;;;;5106438;28;19920;-49
2022/05/02 11:55:53;;;;;;;;;;;26.50;91.60;;;;;;5114384;28;19904;-41
2022/05/02 11:58:26;;;;;;;;;;;26.50;91.60;;;;;;5110954;28;20077;-42
2022/05/02 12:00:54;;;;;;;;;;;26.60;91.80;;;;;;5123519;28;19966;-45
2022/05/02 12:03:24;;;;;;;;;;;26.50;91.60;;;;;;5126673;28;19982;-46
2022/05/02 12:05:57;;;;;;;;;;;26.60;91.60;;;;;;5127077;28;20202;-44
2022/05/02 12:08:26;;;;;;;;;;;26.60;91.60;;;;;;5126660;28;19912;-41
2022/05/02 12:11:03;;;;;;;;;;;26.60;91.60;;;;;;5126906;28;19912;-41
2022/05/02 12:13:34;;;;;;;;;;;26.60;91.60;;;;;;5126588;28;19923;-45
2022/05/02 12:16:10;;;;;;;;;;;26.60;91.50;;;;;;5126665;28;19971;-45
2022/05/02 12:18:44;;;;;;;;;;;26.60;91.50;;;;;;5126729;28;20157;-45
2022/05/02 12:21:31;;;;;;;;;;;26.60;91.50;;;;;;5126386;28;19931;-41
2022/05/02 12:23:58;;;;;;;;;;;26.60;91.40;;;;;;5107928;28;19920;-45
2022/05/02 12:26:25;;;;;;;;;;;26.60;91.40;;;;;;5116327;28;19912;-50
2022/05/02 12:28:52;;;;;;;;;;;26.70;91.40;;;;;;5124710;28;20176;-44
2022/05/02 12:31:22;;;;;;;;;;;26.70;91.40;;;;;;5126495;28;19907;-45
2022/05/02 12:33:53;;;;;;;;;;;26.70;91.20;;;;;;5126056;28;19918;-41
2022/05/02 12:36:20;;;;;;;;;;;26.70;91.30;;;;;;5126328;28;19908;-46
2022/05/02 12:38:54;;;;;;;;;;;26.70;91.20;;;;;;5126284;28;19907;-43
2022/05/02 12:41:28;;;;;;;;;;;26.70;91.20;;;;;;5125888;28;19974;-43
2022/05/02 12:43:59;;;;;;;;;;;26.70;91.20;;;;;;5126009;28;19908;-41
2022/05/02 12:46:32;;;;;;;;;;;26.80;91.20;;;;;;5125944;28;19961;-43
2022/05/02 12:49:03;;;;;;;;;;;26.70;91.20;;;;;;5126287;28;20172;-44
2022/05/02 12:51:30;;;;;;;;;;;26.70;91.10;;;;;;5125973;28;19908;-41
2022/05/02 12:54:10;;;;;;;;;;;26.80;91.20;;;;;;5124672;28;19919;-41
2022/05/02 13:02:31;;;;;;;;;;;26.70;91.40;;;;;;5125866;28;19929;-41
2022/05/02 13:04:59;;;;;;;;;;;26.80;91.40;;;;;;5125700;28;20103;-44
2022/05/02 13:07:26;;;;;;;;;;;26.70;91.40;;;;;;5125817;28;20181;-42
2022/05/02 13:09:53;;;;;;;;;;;26.80;91.40;;;;;;5125549;28;19912;-42
2022/05/02 13:12:22;;;;;;;;;;;26.80;91.50;;;;;;5125806;28;19911;-40
2022/05/02 13:14:49;;;;;;;;;;;26.80;91.50;;;;;;5119288;28;19911;-45
2022/05/02 13:17:16;;;;;;;;;;;26.80;91.60;;;;;;5125754;28;20188;-43
2022/05/02 13:19:43;;;;;;;;;;;26.80;91.80;;;;;;5125467;28;20161;-39
2022/05/02 13:22:10;;;;;;;;;;;26.80;91.80;;;;;;5125574;28;19915;-41
2022/05/02 13:24:49;;;;;;;;;;;26.80;91.80;;;;;;5121414;28;19965;-47
2022/05/02 13:27:22;;;;;;;;;;;26.80;91.90;;;;;;5119427;28;20257;-41
2022/05/02 13:29:48;;;;;;;;;;;26.80;91.90;;;;;;5112692;28;19976;-42
2022/05/02 13:32:22;;;;;;;;;;;26.90;91.90;;;;;;5105048;28;19983;-41
2022/05/02 13:34:52;;;;;;;;;;;26.90;91.90;;;;;;5104622;28;19915;-45
2022/05/02 13:37:31;;;;;;;;;;;26.90;91.90;;;;;;5116812;28;20192;-44
2022/05/02 13:40:11;;;;;;;;;;;26.90;91.90;;;;;;5124928;28;19998;-43
2022/05/02 13:42:50;;;;;;;;;;;26.90;91.80;;;;;;5125673;28;19969;-51
2022/05/02 13:45:16;;;;;;;;;;;27.00;91.70;;;;;;5124848;28;19953;-47
2022/05/02 13:48:02;;;;;;;;;;;27.00;91.70;;;;;;5125325;28;19915;-41
2022/05/02 13:50:29;;;;;;;;;;;27.00;91.70;;;;;;5083727;28;19908;-43
2022/05/02 13:53:18;;;;;;;;;;;27.00;91.60;;;;;;5124857;28;19982;-46
2022/05/02 13:55:45;;;;;;;;;;;27.10;91.60;;;;;;5124841;28;19908;-42
2022/05/02 13:58:28;;;;;;;;;;;27.10;91.50;;;;;;5125076;28;19915;-45
2022/05/02 14:09:32;;;;;;;;;;;27.30;91.40;;;;;;5122892;28;19939;-40
2022/05/02 14:11:59;;;;;;;;;;;27.30;91.30;;;;;;5110283;28;19915;-41
2022/05/02 14:14:25;;;;;;;;;;;27.40;91.40;;;;;;5096855;28;20009;-49
2022/05/02 14:16:54;;;;;;;;;;;27.40;91.30;;;;;;5124788;28;19907;-45
2022/05/02 14:19:25;;;;;;;;;;;27.40;91.30;;;;;;5124702;28;20104;-49
2022/05/02 14:21:52;;;;;;;;;;;27.40;91.20;;;;;;5124825;28;20192;-46
2022/05/02 14:24:20;;;;;;;;;;;27.50;91.20;;;;;;5124576;28;19908;-44
2022/05/02 14:26:57;;;;;;;;;;;27.50;91.20;;;;;;5124739;28;19975;-41
2022/05/02 14:29:28;;;;;;;;;;;27.50;91.20;;;;;;5124577;28;19948;-48
2022/05/02 14:32:01;;;;;;;;;;;27.60;91.10;;;;;;5124856;28;19923;-49
2022/05/02 14:34:38;;;;;;;;;;;27.60;91.10;;;;;;5121552;28;19935;-45
2022/05/02 14:37:04;;;;;;;;;;;27.70;91.10;;;;;;5096200;28;19914;-48
2022/05/02 14:39:32;;;;;;;;;;;27.70;91.00;;;;;;5122007;28;19916;-45
2022/05/02 14:41:58;;;;;;;;;;;27.70;90.90;;;;;;5124783;28;19912;-42
2022/05/02 14:44:26;;;;;;;;;;;27.70;90.90;;;;;;5124165;28;19908;-41
2022/05/02 14:46:52;;;;;;;;;;;27.80;90.90;;;;;;5124573;28;19977;-42
2022/05/02 14:49:19;;;;;;;;;;;27.80;90.80;;;;;;5124328;28;20141;-44
2022/05/02 14:51:50;;;;;;;;;;;27.80;90.80;;;;;;5124126;28;20188;-42
2022/05/02 14:54:20;;;;;;;;;;;27.90;90.80;;;;;;5124295;28;19920;-42
2022/05/02 14:56:47;;;;;;;;;;;27.90;90.70;;;;;;5121302;28;19908;-43
2022/05/02 14:59:15;;;;;;;;;;;27.90;90.60;;;;;;5113299;28;19919;-44
2022/05/02 15:01:42;;;;;;;;;;;27.90;90.60;;;;;;5110504;28;19908;-46
2022/05/02 15:04:20;;;;;;;;;;;28.00;90.50;;;;;;5102764;28;19940;-42
2022/05/02 15:06:51;;;;;;;;;;;28.10;90.50;;;;;;5101603;28;19908;-43
2022/05/02 15:09:21;;;;;;;;;;;28.10;90.40;;;;;;5086144;28;20096;-44
2022/05/02 15:11:55;;;;;;;;;;;28.10;90.40;;;;;;5086274;28;19908;-42
2022/05/02 15:14:39;;;;;;;;;;;28.10;90.30;;;;;;5090870;28;19912;-41
2022/05/02 15:17:30;;;;;;;;;;;28.10;90.20;;;;;;5096376;28;19908;-48
2022/05/02 15:20:05;;;;;;;;;;;28.20;90.10;;;;;;5121628;28;19950;-44
2022/05/02 15:22:40;;;;;;;;;;;28.20;90.10;;;;;;5128281;28;19908;-44
2022/05/02 15:25:10;;;;;;;;;;;28.20;90.00;;;;;;5127730;28;19908;-44